Time;durP1;ratioP1;P1;durP2;ratioP2;P2;SDS_P1;SDS_P2;PMS_P1;PMS_P2;Temp;Humidity;BMP_temperature;BMP_pressure;BME280_temperature;BME280_humidity;BME280_pressure;Samples;Min_cycle;Max_cycle;Signal;HPM_P1;HPM_P2
2023/04/08 00:00:16;;;;;;;3.00;2.70;;;;;;;19.50;50.38;97539.59;4954337;28;20220;-28
2023/04/08 00:02:42;;;;;;;3.07;2.77;;;;;;;19.52;50.57;97540.53;4953152;29;20208;-28
2023/04/08 00:05:09;;;;;;;3.17;2.60;;;;;;;19.52;51.01;97539.66;4946191;29;20220;-28
2023/04/08 00:07:36;;;;;;;3.67;2.87;;;;;;;19.50;50.07;97537.03;4941254;29;20208;-38
2023/04/08 00:10:03;;;;;;;3.37;3.00;;;;;;;19.52;50.42;97543.06;4953524;28;20228;-27
2023/04/08 00:12:29;;;;;;;5.50;3.17;;;;;;;19.52;50.70;97543.06;4947829;28;20291;-29
2023/04/08 00:14:56;;;;;;;3.73;2.93;;;;;;;19.49;50.01;97536.97;4950199;29;20232;-28
2023/04/08 00:17:23;;;;;;;3.60;2.70;;;;;;;19.51;50.69;97540.47;4953423;28;20290;-28
2023/04/08 00:19:50;;;;;;;3.37;2.63;;;;;;;19.47;50.42;97536.03;4953331;28;20647;-29
2023/04/08 00:22:17;;;;;;;3.20;2.90;;;;;;;19.52;50.52;97544.75;4947858;28;20201;-28
2023/04/08 00:24:43;;;;;;;3.60;2.90;;;;;;;19.53;50.30;97549.03;4944718;29;20216;-28
2023/04/08 00:27:10;;;;;;;3.70;3.03;;;;;;;19.39;49.76;97522.19;4952209;29;20626;-27
2023/04/08 00:29:36;;;;;;;3.17;2.77;;;;;;;19.52;50.25;97535.44;4952746;29;20197;-36
2023/04/08 00:32:03;;;;;;;3.37;3.07;;;;;;;19.51;50.33;97546.41;4949678;28;20255;-29
2023/04/08 00:34:30;;;;;;;3.13;2.83;;;;;;;19.50;50.50;97541.25;4938734;29;20238;-27
2023/04/08 00:36:56;;;;;;;3.73;3.07;;;;;;;19.51;50.38;97556.63;4951690;29;20295;-27
2023/04/08 00:39:23;;;;;;;3.17;2.97;;;;;;;19.51;50.70;97548.97;4940801;29;20643;-32
2023/04/08 00:41:50;;;;;;;3.27;2.80;;;;;;;19.50;50.64;97543.81;4934905;29;20583;-29
2023/04/08 00:44:17;;;;;;;2.90;2.60;;;;;;;19.50;50.61;97547.25;4945111;29;20250;-28
2023/04/08 00:46:44;;;;;;;3.73;2.93;;;;;;;19.49;49.93;97542.97;4946080;28;20231;-27
2023/04/08 00:49:11;;;;;;;3.57;3.10;;;;;;;19.51;50.40;97551.50;4929589;29;20208;-29
2023/04/08 00:51:37;;;;;;;3.00;2.70;;;;;;;19.52;50.76;97549.84;4928035;29;20656;-27
2023/04/08 00:54:05;;;;;;;3.57;3.00;;;;;;;19.51;50.45;97545.56;4951117;29;20426;-27
2023/04/08 00:56:31;;;;;;;3.30;3.00;;;;;;;19.51;50.45;97548.97;4948429;28;20291;-29
2023/04/08 00:58:59;;;;;;;3.23;2.93;;;;;;;19.50;50.40;97542.13;4950173;28;20676;-28
2023/04/08 01:01:58;;;;;;;3.93;3.33;;;;;;;19.50;50.36;97552.34;4941891;29;20220;-29
2023/04/08 01:04:46;;;;;;;4.80;3.10;;;;;;;19.50;50.30;97551.47;4928071;29;20229;-28
2023/04/08 01:07:26;;;;;;;4.20;2.93;;;;;;;19.50;50.32;97547.25;4948661;28;20299;-27
2023/04/08 01:09:58;;;;;;;2.83;2.63;;;;;;;19.50;50.40;97548.91;4939362;28;20231;-28
2023/04/08 01:12:26;;;;;;;2.93;2.67;;;;;;;19.50;50.37;97551.47;4942516;29;20255;-28
2023/04/08 01:15:00;;;;;;;2.90;2.67;;;;;;;19.35;50.23;97531.38;4918092;29;20687;-29
2023/04/08 01:17:27;;;;;;;3.20;2.70;;;;;;;19.50;50.27;97559.09;4929206;29;20576;-28
2023/04/08 01:19:54;;;;;;;3.03;2.70;;;;;;;19.49;50.63;97552.28;4915791;29;20244;-29
2023/04/08 01:22:42;;;;;;;3.10;2.80;;;;;;;19.49;50.33;97554.81;4915159;29;20569;-29
2023/04/08 01:25:15;;;;;;;3.67;2.97;;;;;;;19.51;50.38;97558.31;4938988;29;20311;-28
2023/04/08 01:27:42;;;;;;;2.63;2.43;;;;;;;19.49;50.30;97562.47;4939399;29;20762;-29
2023/04/08 01:30:09;;;;;;;2.83;2.60;;;;;;;19.51;50.40;97561.72;4937706;29;20216;-29
2023/04/08 01:32:35;;;;;;;2.97;2.67;;;;;;;19.44;50.06;97546.13;4950661;29;20580;-29
2023/04/08 01:35:02;;;;;;;4.07;2.67;;;;;;;19.49;50.38;97549.72;4915865;29;20701;-28
2023/04/08 01:37:29;;;;;;;2.80;2.60;;;;;;;19.50;50.32;97552.34;4920685;29;20204;-30
2023/04/08 01:39:56;;;;;;;2.80;2.60;;;;;;;19.47;50.29;97546.25;4925562;29;20230;-29
2023/04/08 01:42:23;;;;;;;2.77;2.53;;;;;;;19.46;50.42;97545.41;4923414;29;20667;-27
2023/04/08 01:44:50;;;;;;;2.80;2.50;;;;;;;19.38;50.42;97534.03;4945867;29;20311;-28
2023/04/08 01:47:17;;;;;;;2.60;2.40;;;;;;;19.51;50.32;97548.97;4914692;29;20204;-29
2023/04/08 01:49:43;;;;;;;2.83;2.53;;;;;;;19.48;50.54;97553.94;4935967;28;20318;-28
2023/04/08 01:52:10;;;;;;;2.97;2.67;;;;;;;19.51;50.46;97556.63;4915731;29;20306;-29
2023/04/08 01:54:36;;;;;;;3.03;2.73;;;;;;;19.45;50.61;97538.53;4938901;29;20196;-38
2023/04/08 01:57:05;;;;;;;4.07;3.10;;;;;;;19.41;50.18;97543.47;4937576;29;20296;-27
2023/04/08 01:59:33;;;;;;;2.90;2.70;;;;;;;19.51;50.40;97548.97;4937128;28;20204;-28
2023/04/08 02:02:00;;;;;;;2.73;2.53;;;;;;;19.44;50.41;97538.47;4932594;29;20201;-28
2023/04/08 02:04:27;;;;;;;3.00;2.53;;;;;;;19.49;50.25;97548.06;4923025;29;20224;-28
2023/04/08 02:06:55;;;;;;;3.03;2.73;;;;;;;19.47;50.39;97543.69;4935159;29;20751;-37
2023/04/08 02:09:21;;;;;;;2.80;2.60;;;;;;;19.53;50.43;97551.56;4917250;29;20827;-28
2023/04/08 02:11:48;;;;;;;3.37;2.77;;;;;;;19.50;50.69;97552.34;4947332;28;20323;-28
2023/04/08 02:14:14;;;;;;;2.70;2.50;;;;;;;19.48;50.97;97541.19;4951222;28;20293;-31
2023/04/08 02:16:51;;;;;;;2.87;2.60;;;;;;;19.47;50.37;97541.16;4938043;28;20205;-28
2023/04/08 02:19:23;;;;;;;3.00;2.80;;;;;;;19.53;50.35;97556.66;4956039;28;20203;-27
2023/04/08 02:21:53;;;;;;;2.50;2.30;;;;;;;19.52;50.24;97553.28;4922660;29;20580;-27
2023/04/08 02:24:19;;;;;;;2.80;2.60;;;;;;;19.48;50.22;97546.31;4944329;29;20348;-29
2023/04/08 02:26:46;;;;;;;2.63;2.40;;;;;;;19.50;50.44;97552.34;4943567;29;20232;-29
2023/04/08 02:29:14;;;;;;;2.60;2.40;;;;;;;19.51;50.25;97556.63;4922386;28;20295;-27
2023/04/08 02:31:41;;;;;;;3.03;2.53;;;;;;;19.45;50.36;97546.19;4921839;29;20228;-28
2023/04/08 02:34:11;;;;;;;2.90;2.70;;;;;;;19.46;50.30;97547.94;4923183;29;20200;-29
2023/04/08 02:36:39;;;;;;;2.87;2.40;;;;;;;19.47;50.29;97547.13;4920500;29;20619;-27
2023/04/08 02:39:06;;;;;;;3.10;2.80;;;;;;;19.54;50.09;97568.63;4924252;29;20208;-31
2023/04/08 02:41:33;;;;;;;2.87;2.67;;;;;;;19.50;50.33;97559.97;4944439;29;20256;-28
2023/04/08 02:43:59;;;;;;;2.90;2.70;;;;;;;19.54;50.59;97563.53;4943233;29;20429;-27
2023/04/08 02:46:26;;;;;;;2.93;2.67;;;;;;;19.53;50.50;97561.75;4948598;28;20205;-29
2023/04/08 02:48:52;;;;;;;2.73;2.40;;;;;;;19.54;50.43;97569.47;4939343;29;20667;-30
2023/04/08 02:51:19;;;;;;;2.67;2.47;;;;;;;19.54;50.66;97563.53;4944054;28;20247;-29
2023/04/08 02:53:46;;;;;;;2.70;2.50;;;;;;;19.54;50.31;97573.72;4946551;29;20656;-29
2023/04/08 02:56:12;;;;;;;2.70;2.50;;;;;;;19.54;50.21;97568.63;4951639;29;20243;-27
2023/04/08 02:58:39;;;;;;;2.90;2.60;;;;;;;19.54;50.43;97569.47;4946599;29;20228;-30
2023/04/08 03:01:07;;;;;;;2.63;2.37;;;;;;;19.54;50.26;97568.63;4951012;28;20220;-28
2023/04/08 03:03:34;;;;;;;2.90;2.60;;;;;;;19.46;50.50;97559.81;4947463;28;20208;-27
2023/04/08 03:06:01;;;;;;;2.87;2.57;;;;;;;19.51;50.45;97568.50;4954819;29;20224;-28
2023/04/08 03:08:27;;;;;;;3.27;2.70;;;;;;;19.54;50.47;97574.56;4943731;29;20197;-28
2023/04/08 03:10:54;;;;;;;2.80;2.60;;;;;;;19.54;50.28;97577.13;4945158;28;20236;-28
2023/04/08 03:13:20;;;;;;;2.93;2.63;;;;;;;19.46;50.21;97557.25;4944515;29;20207;-27
2023/04/08 03:15:47;;;;;;;2.90;2.60;;;;;;;19.53;50.32;97569.41;4950772;28;20196;-27
2023/04/08 03:18:14;;;;;;;2.93;2.73;;;;;;;19.42;49.99;97553.72;4949863;29;20205;-28
2023/04/08 03:20:40;;;;;;;3.37;2.43;;;;;;;19.36;50.58;97540.75;4942841;28;20726;-28
2023/04/08 03:23:07;;;;;;;2.70;2.50;;;;;;;19.54;50.41;97574.56;4937071;28;20242;-29
2023/04/08 03:25:33;;;;;;;2.63;2.43;;;;;;;19.40;50.24;97557.03;4943625;29;20663;-37
2023/04/08 03:28:00;;;;;;;2.90;2.70;;;;;;;19.54;50.32;97579.66;4945474;29;20204;-33
2023/04/08 03:30:27;;;;;;;2.93;2.67;;;;;;;19.24;50.28;97524.06;4947903;28;20224;-27
2023/04/08 03:32:53;;;;;;;2.73;2.53;;;;;;;19.55;50.12;97578.00;4953721;29;20215;-28
2023/04/08 03:35:20;;;;;;;3.10;2.80;;;;;;;19.45;50.33;97558.94;4944027;29;20244;-27
2023/04/08 03:37:47;;;;;;;2.87;2.50;;;;;;;19.55;50.19;97575.44;4944073;28;20696;-29
2023/04/08 03:40:14;;;;;;;3.00;2.73;;;;;;;19.54;49.52;97573.72;4947489;29;20220;-29
2023/04/08 03:42:40;;;;;;;2.93;2.63;;;;;;;19.50;50.32;97576.94;4950044;29;20200;-29
2023/04/08 03:45:07;;;;;;;2.73;2.53;;;;;;;19.54;50.24;97584.75;4935793;29;20263;-28
2023/04/08 03:47:34;;;;;;;2.87;2.27;;;;;;;19.52;50.23;97585.53;4953147;28;20232;-28
2023/04/08 03:50:01;;;;;;;2.70;2.37;;;;;;;19.52;50.71;97582.97;4951295;28;20220;-29
2023/04/08 03:52:27;;;;;;;3.00;2.70;;;;;;;19.53;50.21;97584.72;4947123;28;20645;-32
2023/04/08 03:54:54;;;;;;;2.50;2.30;;;;;;;19.47;50.12;97575.16;4944326;29;20288;-29
2023/04/08 03:57:20;;;;;;;2.70;2.50;;;;;;;19.53;49.78;97587.25;4940760;29;20197;-27
2023/04/08 03:59:47;;;;;;;2.70;2.50;;;;;;;19.49;50.10;97581.19;4939836;29;20220;-27
2023/04/08 04:02:14;;;;;;;2.70;2.50;;;;;;;19.54;50.59;97597.50;4946496;29;20259;-28
2023/04/08 04:04:40;;;;;;;2.87;2.67;;;;;;;19.54;50.70;97594.13;4940479;29;20713;-28
2023/04/08 04:07:07;;;;;;;2.67;2.47;;;;;;;19.54;50.25;97601.75;4944508;29;20212;-28
2023/04/08 04:09:34;;;;;;;2.93;2.63;;;;;;;19.46;50.23;97583.63;4944988;29;20238;-29
2023/04/08 04:12:01;;;;;;;2.77;2.57;;;;;;;19.54;50.37;97599.22;4947851;29;20237;-27
2023/04/08 04:14:27;;;;;;;2.67;2.40;;;;;;;19.50;49.76;97593.13;4949289;28;20196;-28
2023/04/08 04:16:54;;;;;;;2.60;2.40;;;;;;;19.52;50.25;97599.16;4943165;29;20200;-28
2023/04/08 04:19:20;;;;;;;2.97;2.67;;;;;;;19.54;49.98;97606.84;4947525;29;20204;-29
2023/04/08 04:21:47;;;;;;;2.63;2.43;;;;;;;19.49;49.74;97610.91;4930276;29;20260;-28
2023/04/08 04:24:13;;;;;;;2.97;2.70;;;;;;;19.40;50.17;97587.59;4948825;29;20628;-27
2023/04/08 04:26:40;;;;;;;3.70;2.50;;;;;;;19.52;50.06;97611.00;4936023;29;20216;-29
2023/04/08 04:29:07;;;;;;;3.33;3.07;;;;;;;19.54;49.97;97612.81;4948781;28;20196;-30
2023/04/08 04:31:34;;;;;;;3.60;2.83;;;;;;;19.45;50.18;97593.75;4950884;28;20255;-28
2023/04/08 04:34:00;;;;;;;3.17;2.97;;;;;;;19.53;49.96;97611.06;4949916;28;20287;-28
2023/04/08 04:36:27;;;;;;;2.87;2.67;;;;;;;19.53;50.45;97613.63;4952962;28;20268;-28
2023/04/08 04:38:53;;;;;;;2.70;2.50;;;;;;;19.53;50.16;97608.53;4940968;28;20207;-29
2023/04/08 04:41:20;;;;;;;3.20;2.90;;;;;;;19.54;50.22;97620.44;4942274;29;20221;-29
2023/04/08 04:43:47;;;;;;;3.17;2.60;;;;;;;19.53;50.28;97618.72;4944801;29;20281;-28
2023/04/08 04:46:14;;;;;;;2.60;2.40;;;;;;;19.53;49.79;97618.72;4943113;29;20255;-29
2023/04/08 04:48:41;;;;;;;3.33;2.80;;;;;;;19.53;49.80;97618.72;4943352;28;20631;-28
2023/04/08 04:51:07;;;;;;;3.20;2.90;;;;;;;19.54;50.24;97622.16;4946177;28;20217;-27
2023/04/08 04:53:34;;;;;;;3.07;2.77;;;;;;;19.54;50.75;97623.00;4949184;29;20283;-34
2023/04/08 04:56:00;;;;;;;3.27;2.77;;;;;;;19.54;50.21;97625.56;4938142;29;20283;-29
2023/04/08 04:58:28;;;;;;;3.03;2.77;;;;;;;19.50;50.36;97621.16;4940449;29;20253;-28
2023/04/08 05:00:55;;;;;;;2.50;2.30;;;;;;;19.55;50.40;97626.44;4941855;28;20224;-29
2023/04/08 05:03:21;;;;;;;3.10;2.83;;;;;;;19.55;50.33;97627.31;4940299;29;20256;-29
2023/04/08 05:05:52;;;;;;;3.10;2.80;;;;;;;19.54;50.41;97627.25;4946972;29;20219;-27
2023/04/08 05:08:19;;;;;;;2.50;2.30;;;;;;;19.54;50.31;97629.81;4938357;29;20633;-29
2023/04/08 05:10:45;;;;;;;2.90;2.60;;;;;;;19.55;50.55;97632.41;4942342;28;20778;-29
2023/04/08 05:13:12;;;;;;;2.90;2.70;;;;;;;19.43;50.21;97615.75;4941811;29;20204;-28
2023/04/08 05:15:39;;;;;;;2.50;2.30;;;;;;;19.56;50.51;97643.44;4949020;29;20234;-35
2023/04/08 05:18:05;;;;;;;5.93;3.90;;;;;;;19.55;49.09;97640.06;4937371;29;20284;-28
2023/04/08 05:20:32;;;;;;;5.90;4.23;;;;;;;19.45;49.21;97622.66;4949659;28;20734;-27
2023/04/08 05:22:59;;;;;;;7.00;5.50;;;;;;;19.54;48.06;97642.53;4945224;29;20296;-28
2023/04/08 05:25:25;;;;;;;5.60;5.10;;;;;;;19.54;47.71;97645.09;4940011;29;20307;-35
2023/04/08 05:27:52;;;;;;;7.73;6.70;;;;;;;19.52;47.62;97637.38;4946537;29;20263;-29
2023/04/08 05:30:19;;;;;;;8.27;7.43;;;;;;;19.39;46.05;97624.09;4943642;28;20224;-27
2023/04/08 05:32:46;;;;;;;8.97;7.97;;;;;;;19.50;45.82;97656.84;4945304;29;20260;-29
2023/04/08 05:35:12;;;;;;;9.30;8.40;;;;;;;19.48;44.30;97648.25;4942210;29;20205;-29
2023/04/08 05:37:39;;;;;;;9.10;8.20;;;;;;;19.36;44.46;97634.19;4948022;29;20212;-28
2023/04/08 05:40:06;;;;;;;9.13;8.20;;;;;;;19.45;44.26;97654.94;4949025;28;20252;-27
2023/04/08 05:42:33;;;;;;;11.47;9.17;;;;;;;19.44;44.18;97664.25;4951851;29;20614;-27
2023/04/08 05:44:59;;;;;;;10.37;9.33;;;;;;;19.31;43.70;97644.19;4949020;28;20208;-27
2023/04/08 05:47:26;;;;;;;11.77;10.00;;;;;;;19.29;43.22;97643.25;4948216;28;20212;-27
2023/04/08 05:49:53;;;;;;;12.60;9.57;;;;;;;19.39;42.99;97662.34;4942358;28;20228;-29
2023/04/08 05:52:20;;;;;;;10.87;8.50;;;;;;;19.38;43.20;97658.91;4945064;29;20236;-28
2023/04/08 05:54:46;;;;;;;10.33;9.33;;;;;;;19.37;43.67;97658.84;4941710;29;20208;-27
2023/04/08 05:57:13;;;;;;;10.73;9.60;;;;;;;19.36;43.58;97657.13;4944518;28;20200;-28
2023/04/08 05:59:39;;;;;;;10.03;9.03;;;;;;;19.30;44.58;97652.63;4947830;28;20207;-28
2023/04/08 06:02:06;;;;;;;10.57;9.47;;;;;;;19.27;44.61;97654.19;4946927;29;20675;-27
2023/04/08 06:04:33;;;;;;;10.13;9.13;;;;;;;19.31;44.26;97662.03;4943900;29;20251;-28
2023/04/08 06:07:01;;;;;;;9.33;8.27;;;;;;;19.32;45.11;97666.31;4943733;29;20225;-27
2023/04/08 06:09:28;;;;;;;9.17;8.27;;;;;;;19.35;45.43;97674.06;4947524;28;20697;-30
2023/04/08 06:11:56;;;;;;;11.93;8.37;;;;;;;19.36;45.98;97672.41;4943276;28;20201;-28
2023/04/08 06:14:22;;;;;;;10.73;8.30;;;;;;;19.36;45.51;97680.91;4943611;29;20207;-27
2023/04/08 06:16:49;;;;;;;9.40;8.13;;;;;;;19.36;45.28;97667.31;4948111;29;20201;-28
2023/04/08 06:19:16;;;;;;;8.97;8.07;;;;;;;19.35;45.79;97671.53;4949284;29;20818;-29
2023/04/08 06:21:42;;;;;;;8.30;7.60;;;;;;;19.33;46.61;97668.03;4954330;28;20228;-29
2023/04/08 06:24:09;;;;;;;8.80;7.07;;;;;;;19.38;47.01;97681.84;4949473;29;20624;-30
2023/04/08 06:26:36;;;;;;;6.93;6.23;;;;;;;19.40;46.31;97672.59;4953515;29;20642;-29
2023/04/08 06:29:03;;;;;;;9.13;7.30;;;;;;;19.41;46.55;97676.88;4939674;29;20288;-28
2023/04/08 06:31:30;;;;;;;8.37;6.70;;;;;;;19.38;47.24;97674.19;4950930;28;20239;-28
2023/04/08 06:33:57;;;;;;;10.13;9.13;;;;;;;19.40;44.88;97677.69;4946682;29;20205;-29
2023/04/08 06:36:23;;;;;;;12.47;9.77;;;;;;;19.25;43.42;97659.19;4943678;29;20196;-29
2023/04/08 06:38:50;;;;;;;10.67;8.83;;;;;;;19.40;43.93;97689.53;4954218;28;20687;-29
2023/04/08 06:41:17;;;;;;;9.47;8.57;;;;;;;19.39;44.65;97688.66;4945021;28;20216;-28
2023/04/08 06:43:43;;;;;;;9.47;8.17;;;;;;;19.37;45.03;97695.41;4952456;28;20288;-28
2023/04/08 06:46:10;;;;;;;10.97;8.50;;;;;;;19.38;45.44;97702.22;4953451;29;20279;-28
2023/04/08 06:48:37;;;;;;;8.67;7.87;;;;;;;19.39;45.62;97700.56;4945779;29;20288;-27
2023/04/08 06:51:04;;;;;;;12.57;8.20;;;;;;;19.34;45.79;97696.94;4940363;28;20659;-29
2023/04/08 06:53:32;;;;;;;10.03;8.10;;;;;;;19.40;46.27;97710.81;4951771;29;20200;-29
2023/04/08 06:55:59;;;;;;;8.33;7.53;;;;;;;19.39;46.02;97710.75;4946081;29;20790;-30
2023/04/08 06:58:26;;;;;;;9.13;8.17;;;;;;;19.40;46.01;97710.81;4943306;29;20329;-27
2023/04/08 07:00:54;;;;;;;9.67;7.60;;;;;;;19.40;46.46;97718.47;4954524;28;20315;-27
2023/04/08 07:03:21;;;;;;;7.90;7.10;;;;;;;19.40;46.33;97722.69;4954075;29;20229;-29
2023/04/08 07:05:48;;;;;;;7.67;6.97;;;;;;;19.36;46.28;97710.63;4943915;29;20266;-27
2023/04/08 07:08:14;;;;;;;7.57;6.53;;;;;;;19.39;46.33;97721.81;4944009;29;20208;-29
2023/04/08 07:10:41;;;;;;;8.37;6.80;;;;;;;19.40;46.32;97725.22;4914749;28;1123083;-28
2023/04/08 07:13:08;;;;;;;10.27;6.83;;;;;;;19.35;46.52;97727.59;4951209;29;20232;-27
2023/04/08 07:15:34;;;;;;;6.63;6.03;;;;;;;19.36;47.01;97729.31;4948014;29;20197;-27
2023/04/08 07:18:01;;;;;;;6.73;6.03;;;;;;;19.40;47.03;97735.41;4949565;29;20583;-28
2023/04/08 07:20:28;;;;;;;7.33;6.13;;;;;;;19.41;47.19;97740.59;4955137;28;20226;-27
2023/04/08 07:22:57;;;;;;;9.50;5.97;;;;;;;19.40;46.94;97735.41;4950967;28;20208;-29
2023/04/08 07:25:24;;;;;;;7.37;6.03;;;;;;;19.37;47.04;97743.81;4940417;29;20203;-28
2023/04/08 07:27:51;;;;;;;6.20;5.53;;;;;;;19.41;47.23;97744.81;4938520;29;21342;-27
2023/04/08 07:30:18;;;;;;;7.67;5.80;;;;;;;19.40;47.10;97751.59;4950061;28;20739;-29
2023/04/08 07:32:45;;;;;;;6.30;5.70;;;;;;;19.42;47.45;97757.59;4946271;29;20207;-28
2023/04/08 07:35:12;;;;;;;6.17;5.57;;;;;;;19.42;47.04;97765.25;4942896;29;20291;-27
2023/04/08 07:37:38;;;;;;;6.33;5.57;;;;;;;19.43;47.57;97764.47;4935057;29;20287;-29
2023/04/08 07:40:05;;;;;;;5.70;5.13;;;;;;;19.40;47.28;97758.38;4950965;29;20640;-29
2023/04/08 07:42:32;;;;;;;6.87;5.20;;;;;;;19.43;47.41;97771.22;4943502;29;20355;-28
2023/04/08 07:44:59;;;;;;;5.83;5.10;;;;;;;19.02;47.78;97694.72;4936776;29;21119;-28
2023/04/08 07:47:26;;;;;;;5.73;5.20;;;;;;;19.42;47.53;97767.81;4954611;28;20308;-28
2023/04/08 07:49:53;;;;;;;5.23;4.73;;;;;;;19.45;47.55;97774.72;4950572;29;20309;-28
2023/04/08 07:52:20;;;;;;;4.80;4.40;;;;;;;19.45;47.57;97777.28;4938114;29;20205;-27
2023/04/08 07:54:46;;;;;;;5.30;4.57;;;;;;;19.42;47.10;97774.59;4940383;29;20210;-32
2023/04/08 07:57:13;;;;;;;4.60;4.20;;;;;;;19.31;47.50;97763.06;4948298;29;20208;-29
2023/04/08 07:59:40;;;;;;;5.10;4.60;;;;;;;19.43;47.57;97786.53;4950159;28;20271;-29
2023/04/08 08:02:07;;;;;;;5.50;4.70;;;;;;;19.45;47.71;97785.78;4943853;29;20682;-36
2023/04/08 08:04:33;;;;;;;4.60;4.20;;;;;;;19.41;47.59;97783.03;4943141;29;20260;-29
2023/04/08 08:07:00;;;;;;;4.30;3.90;;;;;;;19.39;47.65;97782.13;4942878;29;20252;-27
2023/04/08 08:09:27;;;;;;;4.33;3.93;;;;;;;19.45;47.86;97784.91;4953322;28;20457;-29
2023/04/08 08:11:55;;;;;;;4.40;3.90;;;;;;;19.36;47.53;97771.78;4943939;29;20672;-28
2023/04/08 08:14:22;;;;;;;4.63;4.13;;;;;;;19.45;47.89;97795.97;4952187;29;20330;-28
2023/04/08 08:16:49;;;;;;;4.27;3.87;;;;;;;19.45;47.30;97793.41;4954195;28;20579;-27
2023/04/08 08:19:15;;;;;;;4.00;3.60;;;;;;;19.45;47.84;97798.50;4951063;29;20296;-28
2023/04/08 08:21:42;;;;;;;4.33;3.80;;;;;;;19.37;47.43;97789.69;4953135;28;20659;-27
2023/04/08 08:24:08;;;;;;;5.43;4.00;;;;;;;19.39;47.79;97793.16;4936679;29;20201;-29
2023/04/08 08:26:38;;;;;;;4.20;3.80;;;;;;;19.46;47.99;97801.94;4952640;29;20275;-27
2023/04/08 08:29:07;;;;;;;3.97;3.67;;;;;;;19.10;47.97;97740.06;4943763;28;20680;-29
2023/04/08 08:31:34;;;;;;;4.23;3.83;;;;;;;19.45;48.10;97802.75;4951175;28;20227;-27
2023/04/08 08:34:01;;;;;;;4.30;3.90;;;;;;;19.44;48.03;97798.44;4942578;29;20205;-30
2023/04/08 08:36:28;;;;;;;4.30;3.90;;;;;;;19.45;48.11;97803.59;4949006;29;20200;-27
2023/04/08 08:38:54;;;;;;;4.63;3.93;;;;;;;19.43;47.93;97805.25;4951343;29;20208;-27
2023/04/08 08:41:21;;;;;;;4.30;3.90;;;;;;;19.46;47.90;97812.13;4946165;29;20259;-29
2023/04/08 08:43:48;;;;;;;5.33;3.73;;;;;;;19.46;48.34;97807.91;4945401;29;20767;-27
2023/04/08 08:46:16;;;;;;;3.90;3.60;;;;;;;19.46;48.13;97807.91;4917810;29;20251;-28
2023/04/08 08:48:43;;;;;;;3.70;3.37;;;;;;;19.45;48.09;97798.50;4943387;28;20220;-28
2023/04/08 08:51:10;;;;;;;4.23;3.47;;;;;;;19.45;48.08;97803.59;4941614;28;20228;-29
2023/04/08 08:53:36;;;;;;;3.67;3.30;;;;;;;19.45;48.11;97816.34;4948701;29;20212;-29
2023/04/08 08:56:07;;;;;;;3.87;3.57;;;;;;;19.45;48.15;97813.81;4953039;29;20276;-27
2023/04/08 08:58:38;;;;;;;4.10;3.80;;;;;;;19.44;48.23;97809.53;4945550;29;20211;-27
2023/04/08 09:01:32;;;;;;;4.33;3.40;;;;;;;19.45;48.12;97813.81;4940926;29;20221;-29
2023/04/08 09:04:06;;;;;;;3.50;3.20;;;;;;;19.43;48.29;97815.44;4948169;29;20617;-28
2023/04/08 09:06:33;;;;;;;3.80;3.40;;;;;;;19.41;48.34;97818.72;4953357;29;20230;-29
2023/04/08 09:09:00;;;;;;;3.63;3.33;;;;;;;19.41;48.31;97814.50;4927203;29;20208;-28
2023/04/08 09:11:26;;;;;;;3.33;3.03;;;;;;;19.46;48.50;97827.44;4953381;28;20271;-29
2023/04/08 09:13:53;;;;;;;3.57;3.00;;;;;;;19.45;48.35;97829.09;4953036;29;20295;-29
2023/04/08 09:16:22;;;;;;;4.83;3.37;;;;;;;19.45;48.27;97828.25;4917493;29;20197;-28
2023/04/08 09:18:48;;;;;;;4.00;3.60;;;;;;;19.35;48.42;97808.25;4949956;29;20697;-31
2023/04/08 09:21:16;;;;;;;4.27;3.07;;;;;;;19.32;48.34;97806.47;4951807;28;20252;-28
2023/04/08 09:23:43;;;;;;;3.30;3.00;;;;;;;19.45;48.38;97828.25;4939314;29;20203;-32
2023/04/08 09:26:11;;;;;;;4.13;3.30;;;;;;;19.43;48.36;97827.31;4951739;29;20224;-29
2023/04/08 09:28:38;;;;;;;3.63;3.33;;;;;;;19.36;48.30;97818.50;4953553;29;20207;-29
2023/04/08 09:31:23;;;;;;;4.63;3.13;;;;;;;19.44;48.71;97824.81;4948065;28;20398;-29
2023/04/08 09:33:51;;;;;;;4.00;3.70;;;;;;;19.33;47.78;97813.28;4937974;29;20209;-27
2023/04/08 09:36:18;;;;;;;6.93;4.97;;;;;;;19.34;47.05;97809.06;4898248;28;20236;-27
2023/04/08 09:38:45;;;;;;;5.60;5.10;;;;;;;19.42;46.82;97828.97;4944137;28;20200;-27
2023/04/08 09:41:14;;;;;;;5.33;4.83;;;;;;;19.45;47.21;97838.44;4951286;28;20220;-29
2023/04/08 09:43:42;;;;;;;5.13;4.63;;;;;;;19.45;47.20;97838.44;4952053;29;20550;-27
2023/04/08 09:46:10;;;;;;;5.23;4.70;;;;;;;19.44;47.13;97831.59;4948639;28;20237;-27
2023/04/08 09:48:49;;;;;;;4.83;4.43;;;;;;;19.44;47.31;97835.00;4954033;28;20630;-27
2023/04/08 09:51:15;;;;;;;5.97;4.63;;;;;;;19.45;47.52;97835.91;4944712;28;20668;-27
2023/04/08 09:53:56;;;;;;;5.57;4.97;;;;;;;19.35;47.77;97814.22;4943911;29;20264;-29
2023/04/08 09:56:22;;;;;;;8.50;4.20;;;;;;;19.46;48.22;97828.31;4933966;29;20193;-27
2023/04/08 09:58:56;;;;;;;4.53;4.13;;;;;;;19.39;48.29;97816.09;4955442;29;20581;-29
2023/04/08 10:01:29;;;;;;;4.07;3.50;;;;;;;19.46;48.22;97835.97;4933833;29;20217;-27
2023/04/08 10:03:56;;;;;;;7.50;3.67;;;;;;;19.46;48.27;97827.44;4946965;28;20287;-27
2023/04/08 10:06:27;;;;;;;4.87;3.87;;;;;;;19.49;48.34;97848.84;4935641;29;20225;-28
2023/04/08 10:08:55;;;;;;;3.93;3.53;;;;;;;19.50;48.45;97847.13;4938236;29;20255;-27
2023/04/08 10:11:21;;;;;;;4.23;3.60;;;;;;;19.50;48.46;97853.13;4923321;29;20703;-29
2023/04/08 10:13:48;;;;;;;3.83;3.50;;;;;;;19.45;48.11;97839.28;4939164;29;20299;-27
2023/04/08 10:16:28;;;;;;;3.57;3.27;;;;;;;19.52;48.43;97848.06;4934545;29;20216;-36
2023/04/08 10:18:55;;;;;;;3.23;3.03;;;;;;;19.47;48.50;97829.16;4947629;29;20296;-27
2023/04/08 10:21:32;;;;;;;3.50;3.20;;;;;;;19.52;48.34;97848.97;4947832;28;20216;-29
2023/04/08 10:24:00;;;;;;;3.37;3.07;;;;;;;19.49;48.45;97838.63;4956132;28;20208;-27
2023/04/08 10:26:32;;;;;;;3.30;3.00;;;;;;;19.49;48.27;97835.22;4938827;29;20717;-27
2023/04/08 10:29:17;;;;;;;5.23;3.20;;;;;;;19.50;48.42;97842.91;4941575;29;20201;-27
2023/04/08 10:31:48;;;;;;;2.80;2.60;;;;;;;19.51;48.32;97847.19;4950777;29;20381;-27
2023/04/08 10:34:18;;;;;;;3.37;3.07;;;;;;;19.51;48.56;97842.09;4937151;29;20663;-29
2023/04/08 10:36:45;;;;;;;3.13;2.90;;;;;;;19.48;48.35;97841.97;4951957;29;20205;-29
2023/04/08 10:39:12;;;;;;;3.90;2.93;;;;;;;19.51;48.28;97847.19;4941358;28;20239;-28
2023/04/08 10:41:42;;;;;;;6.50;3.80;;;;;;;19.48;48.36;97841.97;4924055;29;20225;-29
2023/04/08 10:44:16;;;;;;;4.70;3.70;;;;;;;19.46;48.01;97840.19;4943576;28;20304;-29
2023/04/08 10:46:44;;;;;;;4.43;3.60;;;;;;;19.50;48.23;97847.13;4935230;29;20305;-28
2023/04/08 10:49:12;;;;;;;6.13;3.83;;;;;;;19.50;48.13;97845.47;4955233;28;20200;-29
2023/04/08 10:51:39;;;;;;;4.27;3.80;;;;;;;19.50;48.24;97844.59;4949194;29;20221;-28
2023/04/08 10:54:12;;;;;;;5.73;3.93;;;;;;;19.45;48.44;97844.38;4949616;29;20204;-29
2023/04/08 10:56:49;;;;;;;5.23;3.60;;;;;;;19.49;48.35;97841.19;4946452;28;20300;-29
2023/04/08 10:59:26;;;;;;;3.97;3.57;;;;;;;19.47;48.40;97849.56;4947724;28;20204;-29
2023/04/08 11:01:54;;;;;;;5.70;4.00;;;;;;;19.47;48.24;97842.78;4950953;29;20240;-28
2023/04/08 11:04:22;;;;;;;7.93;4.30;;;;;;;19.44;47.75;97835.00;4948472;28;20223;-27
2023/04/08 11:06:49;;;;;;;6.70;4.90;;;;;;;19.49;47.47;97847.94;4954862;28;20224;-28
2023/04/08 11:09:16;;;;;;;4.90;4.50;;;;;;;19.50;47.81;97852.22;4952801;29;20201;-28
2023/04/08 11:11:43;;;;;;;7.07;4.40;;;;;;;19.49;47.84;97860.69;4944883;29;20315;-29
2023/04/08 11:14:09;;;;;;;7.37;5.97;;;;;;;19.46;45.75;97860.56;4945142;28;20197;-28
2023/04/08 11:16:37;;;;;;;7.87;7.07;;;;;;;19.45;44.76;97852.03;4948044;29;20216;-29
2023/04/08 11:19:04;;;;;;;10.27;7.10;;;;;;;19.43;44.48;97850.25;4941978;29;20201;-29
2023/04/08 11:21:32;;;;;;;7.87;5.97;;;;;;;19.41;45.02;97847.63;4946082;28;20311;-27
2023/04/08 11:23:58;;;;;;;6.40;5.57;;;;;;;19.43;45.28;97852.78;4937624;29;20287;-29
2023/04/08 11:26:25;;;;;;;7.13;6.30;;;;;;;19.40;45.89;97847.56;4953647;28;20224;-29
2023/04/08 11:28:52;;;;;;;8.67;5.70;;;;;;;19.43;46.04;97860.44;4914081;29;20208;-28
2023/04/08 11:31:19;;;;;;;6.87;5.57;;;;;;;19.36;45.70;97849.09;4950389;29;20235;-28
2023/04/08 11:33:52;;;;;;;7.17;5.70;;;;;;;19.43;46.56;97860.44;4936627;29;20264;-28